sensor_id;sensor_type;location;lat;lon;timestamp;P1;durP1;ratioP1;P2;durP2;ratioP2
16326;SDS011;34812;49.846;9.610;2023-02-19T00:00:53;4.90;;;4.50;;
16326;SDS011;34812;49.846;9.610;2023-02-19T00:01:54;4.53;;;4.20;;
16326;SDS011;34812;49.846;9.610;2023-02-19T00:02:56;5.27;;;4.37;;
16326;SDS011;34812;49.846;9.610;2023-02-19T00:03:57;4.63;;;4.23;;
16326;SDS011;34812;49.846;9.610;2023-02-19T00:05:00;4.53;;;4.13;;
16326;SDS011;34812;49.846;9.610;2023-02-19T00:06:01;4.50;;;4.20;;
16326;SDS011;34812;49.846;9.610;2023-02-19T00:07:04;4.43;;;4.03;;
16326;SDS011;34812;49.846;9.610;2023-02-19T00:08:05;4.70;;;4.20;;
16326;SDS011;34812;49.846;9.610;2023-02-19T00:09:07;5.90;;;4.57;;
16326;SDS011;34812;49.846;9.610;2023-02-19T00:10:09;4.20;;;3.80;;
16326;SDS011;34812;49.846;9.610;2023-02-19T00:11:11;4.60;;;4.20;;
16326;SDS011;34812;49.846;9.610;2023-02-19T00:12:15;4.40;;;4.00;;
16326;SDS011;34812;49.846;9.610;2023-02-19T00:13:17;4.60;;;4.20;;
16326;SDS011;34812;49.846;9.610;2023-02-19T00:14:18;4.90;;;4.50;;
16326;SDS011;34812;49.846;9.610;2023-02-19T00:15:21;4.33;;;4.00;;
16326;SDS011;34812;49.846;9.610;2023-02-19T00:16:22;4.30;;;3.90;;
16326;SDS011;34812;49.846;9.610;2023-02-19T00:17:25;5.10;;;4.63;;
16326;SDS011;34812;49.846;9.610;2023-02-19T00:18:27;5.17;;;4.30;;
16326;SDS011;34812;49.846;9.610;2023-02-19T00:19:27;4.63;;;4.13;;
16326;SDS011;34812;49.846;9.610;2023-02-19T00:20:29;4.10;;;3.70;;
16326;SDS011;34812;49.846;9.610;2023-02-19T00:21:30;5.10;;;4.67;;
16326;SDS011;34812;49.846;9.610;2023-02-19T00:22:32;4.87;;;4.30;;
16326;SDS011;34812;49.846;9.610;2023-02-19T00:23:33;4.83;;;4.43;;
16326;SDS011;34812;49.846;9.610;2023-02-19T00:24:36;4.70;;;4.10;;
16326;SDS011;34812;49.846;9.610;2023-02-19T00:25:36;4.73;;;4.23;;
16326;SDS011;34812;49.846;9.610;2023-02-19T00:26:39;5.73;;;4.37;;
16326;SDS011;34812;49.846;9.610;2023-02-19T00:27:41;5.13;;;4.73;;
16326;SDS011;34812;49.846;9.610;2023-02-19T00:28:43;5.10;;;4.70;;
16326;SDS011;34812;49.846;9.610;2023-02-19T00:29:44;4.40;;;4.03;;
16326;SDS011;34812;49.846;9.610;2023-02-19T00:30:46;5.03;;;4.43;;
16326;SDS011;34812;49.846;9.610;2023-02-19T00:31:47;5.07;;;4.57;;
16326;SDS011;34812;49.846;9.610;2023-02-19T00:32:49;5.30;;;4.17;;
16326;SDS011;34812;49.846;9.610;2023-02-19T00:33:51;6.10;;;5.60;;
16326;SDS011;34812;49.846;9.610;2023-02-19T00:34:54;4.97;;;4.60;;
16326;SDS011;34812;49.846;9.610;2023-02-19T00:35:57;5.10;;;4.60;;
16326;SDS011;34812;49.846;9.610;2023-02-19T00:37:00;5.07;;;4.67;;
16326;SDS011;34812;49.846;9.610;2023-02-19T00:38:02;4.60;;;4.20;;
16326;SDS011;34812;49.846;9.610;2023-02-19T00:39:03;5.33;;;4.43;;
16326;SDS011;34812;49.846;9.610;2023-02-19T00:40:07;4.90;;;4.50;;
16326;SDS011;34812;49.846;9.610;2023-02-19T00:41:08;4.90;;;4.47;;
16326;SDS011;34812;49.846;9.610;2023-02-19T00:42:20;4.37;;;4.00;;
16326;SDS011;34812;49.846;9.610;2023-02-19T00:43:22;4.80;;;4.40;;
16326;SDS011;34812;49.846;9.610;2023-02-19T00:44:24;4.77;;;4.37;;
16326;SDS011;34812;49.846;9.610;2023-02-19T00:45:25;5.23;;;4.80;;
16326;SDS011;34812;49.846;9.610;2023-02-19T00:46:27;5.10;;;4.30;;
16326;SDS011;34812;49.846;9.610;2023-02-19T00:47:29;6.47;;;4.67;;
16326;SDS011;34812;49.846;9.610;2023-02-19T00:48:30;5.03;;;4.63;;
16326;SDS011;34812;49.846;9.610;2023-02-19T00:49:31;5.83;;;4.93;;
16326;SDS011;34812;49.846;9.610;2023-02-19T00:50:33;5.20;;;4.80;;
16326;SDS011;34812;49.846;9.610;2023-02-19T00:51:35;5.53;;;5.03;;
16326;SDS011;34812;49.846;9.610;2023-02-19T00:52:37;5.13;;;4.63;;
16326;SDS011;34812;49.846;9.610;2023-02-19T00:53:39;5.10;;;4.70;;
16326;SDS011;34812;49.846;9.610;2023-02-19T00:54:41;6.00;;;5.40;;
16326;SDS011;34812;49.846;9.610;2023-02-19T00:55:41;5.30;;;4.90;;
16326;SDS011;34812;49.846;9.610;2023-02-19T00:56:43;5.07;;;4.67;;
16326;SDS011;34812;49.846;9.610;2023-02-19T00:57:44;5.83;;;5.33;;
16326;SDS011;34812;49.846;9.610;2023-02-19T00:58:47;5.40;;;4.90;;
16326;SDS011;34812;49.846;9.610;2023-02-19T00:59:48;5.57;;;4.67;;
16326;SDS011;34812;49.846;9.610;2023-02-19T01:00:50;4.87;;;4.50;;
16326;SDS011;34812;49.846;9.610;2023-02-19T01:01:52;5.00;;;4.60;;
16326;SDS011;34812;49.846;9.610;2023-02-19T01:02:54;5.03;;;4.63;;
16326;SDS011;34812;49.846;9.610;2023-02-19T01:03:58;5.20;;;4.70;;
16326;SDS011;34812;49.846;9.610;2023-02-19T01:05:00;4.93;;;4.50;;
16326;SDS011;34812;49.846;9.610;2023-02-19T01:06:01;4.97;;;4.67;;
16326;SDS011;34812;49.846;9.610;2023-02-19T01:07:04;5.20;;;4.70;;
16326;SDS011;34812;49.846;9.610;2023-02-19T01:08:04;4.97;;;4.47;;
16326;SDS011;34812;49.846;9.610;2023-02-19T01:09:06;5.00;;;4.60;;
16326;SDS011;34812;49.846;9.610;2023-02-19T01:10:07;5.20;;;4.80;;
16326;SDS011;34812;49.846;9.610;2023-02-19T01:11:10;5.23;;;4.83;;
16326;SDS011;34812;49.846;9.610;2023-02-19T01:12:11;5.60;;;5.17;;
16326;SDS011;34812;49.846;9.610;2023-02-19T01:13:13;4.47;;;4.17;;
16326;SDS011;34812;49.846;9.610;2023-02-19T01:14:15;5.03;;;4.53;;
16326;SDS011;34812;49.846;9.610;2023-02-19T01:15:17;5.10;;;4.70;;
16326;SDS011;34812;49.846;9.610;2023-02-19T01:16:19;5.20;;;4.80;;
16326;SDS011;34812;49.846;9.610;2023-02-19T01:17:24;5.40;;;4.90;;
16326;SDS011;34812;49.846;9.610;2023-02-19T01:18:25;5.23;;;4.67;;
16326;SDS011;34812;49.846;9.610;2023-02-19T01:19:27;5.03;;;4.63;;
16326;SDS011;34812;49.846;9.610;2023-02-19T01:20:29;4.83;;;4.37;;
16326;SDS011;34812;49.846;9.610;2023-02-19T01:21:30;5.13;;;4.80;;
16326;SDS011;34812;49.846;9.610;2023-02-19T01:22:31;5.53;;;5.03;;
16326;SDS011;34812;49.846;9.610;2023-02-19T01:23:32;5.90;;;4.30;;
16326;SDS011;34812;49.846;9.610;2023-02-19T01:24:34;5.13;;;4.77;;
16326;SDS011;34812;49.846;9.610;2023-02-19T01:25:36;4.57;;;4.17;;
16326;SDS011;34812;49.846;9.610;2023-02-19T01:26:38;4.93;;;4.43;;
16326;SDS011;34812;49.846;9.610;2023-02-19T01:27:39;5.07;;;4.57;;
16326;SDS011;34812;49.846;9.610;2023-02-19T01:28:41;5.27;;;4.77;;
16326;SDS011;34812;49.846;9.610;2023-02-19T01:29:43;4.90;;;4.50;;
16326;SDS011;34812;49.846;9.610;2023-02-19T01:30:45;4.97;;;4.47;;
16326;SDS011;34812;49.846;9.610;2023-02-19T01:31:46;5.00;;;4.60;;
16326;SDS011;34812;49.846;9.610;2023-02-19T01:32:48;5.43;;;5.03;;
16326;SDS011;34812;49.846;9.610;2023-02-19T01:33:50;4.93;;;4.50;;
16326;SDS011;34812;49.846;9.610;2023-02-19T01:34:53;4.60;;;4.30;;
16326;SDS011;34812;49.846;9.610;2023-02-19T01:35:54;5.10;;;4.60;;
16326;SDS011;34812;49.846;9.610;2023-02-19T01:36:56;4.97;;;4.67;;
16326;SDS011;34812;49.846;9.610;2023-02-19T01:37:57;4.70;;;4.30;;
16326;SDS011;34812;49.846;9.610;2023-02-19T01:38:59;5.67;;;4.73;;
16326;SDS011;34812;49.846;9.610;2023-02-19T01:40:03;4.80;;;4.50;;
16326;SDS011;34812;49.846;9.610;2023-02-19T01:41:05;4.37;;;4.07;;
16326;SDS011;34812;49.846;9.610;2023-02-19T01:42:10;5.27;;;4.87;;
16326;SDS011;34812;49.846;9.610;2023-02-19T01:43:14;4.90;;;4.50;;
16326;SDS011;34812;49.846;9.610;2023-02-19T01:46:01;5.17;;;4.67;;
16326;SDS011;34812;49.846;9.610;2023-02-19T01:47:03;5.00;;;4.60;;
16326;SDS011;34812;49.846;9.610;2023-02-19T01:48:05;5.00;;;4.47;;
16326;SDS011;34812;49.846;9.610;2023-02-19T01:49:12;4.83;;;4.43;;
16326;SDS011;34812;49.846;9.610;2023-02-19T01:50:18;5.50;;;5.10;;
16326;SDS011;34812;49.846;9.610;2023-02-19T01:51:20;5.33;;;4.93;;
16326;SDS011;34812;49.846;9.610;2023-02-19T01:52:21;4.67;;;4.27;;
16326;SDS011;34812;49.846;9.610;2023-02-19T01:53:28;5.33;;;4.80;;
16326;SDS011;34812;49.846;9.610;2023-02-19T01:54:33;5.20;;;4.80;;
16326;SDS011;34812;49.846;9.610;2023-02-19T01:55:37;4.87;;;4.47;;
16326;SDS011;34812;49.846;9.610;2023-02-19T01:56:39;5.70;;;5.20;;
16326;SDS011;34812;49.846;9.610;2023-02-19T01:57:45;4.63;;;4.33;;
16326;SDS011;34812;49.846;9.610;2023-02-19T01:58:50;5.60;;;5.03;;
16326;SDS011;34812;49.846;9.610;2023-02-19T02:00:02;5.50;;;5.10;;
16326;SDS011;34812;49.846;9.610;2023-02-19T02:01:13;4.60;;;4.20;;
16326;SDS011;34812;49.846;9.610;2023-02-19T02:02:15;5.33;;;4.83;;
16326;SDS011;34812;49.846;9.610;2023-02-19T02:03:17;5.17;;;4.57;;
16326;SDS011;34812;49.846;9.610;2023-02-19T02:04:19;5.37;;;4.97;;
16326;SDS011;34812;49.846;9.610;2023-02-19T02:05:23;5.43;;;4.93;;
16326;SDS011;34812;49.846;9.610;2023-02-19T02:06:36;4.90;;;4.50;;
16326;SDS011;34812;49.846;9.610;2023-02-19T02:07:42;4.87;;;4.47;;
16326;SDS011;34812;49.846;9.610;2023-02-19T02:09:01;5.00;;;4.60;;
16326;SDS011;34812;49.846;9.610;2023-02-19T02:10:21;4.97;;;4.60;;
16326;SDS011;34812;49.846;9.610;2023-02-19T02:11:23;5.30;;;4.67;;
16326;SDS011;34812;49.846;9.610;2023-02-19T02:12:25;4.70;;;4.20;;
16326;SDS011;34812;49.846;9.610;2023-02-19T02:13:26;5.30;;;4.90;;
16326;SDS011;34812;49.846;9.610;2023-02-19T02:14:29;4.47;;;4.17;;
16326;SDS011;34812;49.846;9.610;2023-02-19T02:15:35;4.87;;;4.47;;
16326;SDS011;34812;49.846;9.610;2023-02-19T02:16:43;5.00;;;4.50;;
16326;SDS011;34812;49.846;9.610;2023-02-19T02:17:55;4.60;;;3.57;;
16326;SDS011;34812;49.846;9.610;2023-02-19T02:19:04;5.07;;;4.67;;
16326;SDS011;34812;49.846;9.610;2023-02-19T02:20:24;4.67;;;4.27;;
16326;SDS011;34812;49.846;9.610;2023-02-19T02:21:34;5.80;;;4.57;;
16326;SDS011;34812;49.846;9.610;2023-02-19T02:22:48;4.70;;;4.30;;
16326;SDS011;34812;49.846;9.610;2023-02-19T02:24:01;4.23;;;3.93;;
16326;SDS011;34812;49.846;9.610;2023-02-19T02:25:20;4.27;;;3.97;;
16326;SDS011;34812;49.846;9.610;2023-02-19T02:26:47;4.73;;;4.27;;
16326;SDS011;34812;49.846;9.610;2023-02-19T02:28:06;4.53;;;4.03;;
16326;SDS011;34812;49.846;9.610;2023-02-19T02:29:46;4.47;;;4.07;;
16326;SDS011;34812;49.846;9.610;2023-02-19T02:30:59;4.87;;;4.00;;
16326;SDS011;34812;49.846;9.610;2023-02-19T02:32:04;4.03;;;3.80;;
16326;SDS011;34812;49.846;9.610;2023-02-19T02:33:14;4.40;;;4.00;;
16326;SDS011;34812;49.846;9.610;2023-02-19T02:34:22;3.60;;;3.30;;
16326;SDS011;34812;49.846;9.610;2023-02-19T02:35:26;4.10;;;3.70;;
16326;SDS011;34812;49.846;9.610;2023-02-19T02:36:33;4.20;;;3.90;;
16326;SDS011;34812;49.846;9.610;2023-02-19T02:37:37;4.23;;;3.93;;
16326;SDS011;34812;49.846;9.610;2023-02-19T02:38:42;4.23;;;3.93;;
16326;SDS011;34812;49.846;9.610;2023-02-19T02:39:46;4.00;;;3.70;;
16326;SDS011;34812;49.846;9.610;2023-02-19T02:40:48;4.23;;;3.93;;
16326;SDS011;34812;49.846;9.610;2023-02-19T02:41:54;4.40;;;4.10;;
16326;SDS011;34812;49.846;9.610;2023-02-19T02:43:18;4.30;;;4.00;;
16326;SDS011;34812;49.846;9.610;2023-02-19T02:44:20;4.80;;;4.40;;
16326;SDS011;34812;49.846;9.610;2023-02-19T02:45:24;4.23;;;3.93;;
16326;SDS011;34812;49.846;9.610;2023-02-19T02:46:43;4.87;;;4.13;;
16326;SDS011;34812;49.846;9.610;2023-02-19T02:47:50;4.40;;;4.10;;
16326;SDS011;34812;49.846;9.610;2023-02-19T02:48:55;4.33;;;3.93;;
16326;SDS011;34812;49.846;9.610;2023-02-19T02:49:58;4.00;;;3.70;;
16326;SDS011;34812;49.846;9.610;2023-02-19T02:51:09;4.43;;;4.07;;
16326;SDS011;34812;49.846;9.610;2023-02-19T02:52:22;4.30;;;4.00;;
16326;SDS011;34812;49.846;9.610;2023-02-19T02:53:39;4.73;;;3.93;;
16326;SDS011;34812;49.846;9.610;2023-02-19T02:55:05;3.90;;;3.60;;
16326;SDS011;34812;49.846;9.610;2023-02-19T02:56:08;4.40;;;4.00;;
16326;SDS011;34812;49.846;9.610;2023-02-19T02:57:11;4.23;;;3.83;;
16326;SDS011;34812;49.846;9.610;2023-02-19T02:58:19;3.70;;;3.50;;
16326;SDS011;34812;49.846;9.610;2023-02-19T02:59:24;4.00;;;3.70;;
16326;SDS011;34812;49.846;9.610;2023-02-19T03:00:30;4.10;;;3.63;;
16326;SDS011;34812;49.846;9.610;2023-02-19T03:01:57;4.47;;;4.07;;
16326;SDS011;34812;49.846;9.610;2023-02-19T03:03:10;4.23;;;3.90;;
16326;SDS011;34812;49.846;9.610;2023-02-19T03:04:14;4.00;;;3.70;;
16326;SDS011;34812;49.846;9.610;2023-02-19T03:05:21;3.93;;;3.63;;
16326;SDS011;34812;49.846;9.610;2023-02-19T03:06:44;4.70;;;3.80;;
16326;SDS011;34812;49.846;9.610;2023-02-19T03:07:51;4.17;;;3.87;;
16326;SDS011;34812;49.846;9.610;2023-02-19T03:08:56;4.10;;;3.80;;
16326;SDS011;34812;49.846;9.610;2023-02-19T03:10:02;4.23;;;3.93;;
16326;SDS011;34812;49.846;9.610;2023-02-19T03:11:09;4.23;;;3.93;;
16326;SDS011;34812;49.846;9.610;2023-02-19T03:12:30;4.10;;;3.80;;
16326;SDS011;34812;49.846;9.610;2023-02-19T03:13:54;4.00;;;3.70;;
16326;SDS011;34812;49.846;9.610;2023-02-19T03:15:17;3.97;;;3.67;;
16326;SDS011;34812;49.846;9.610;2023-02-19T03:16:40;4.27;;;3.93;;
16326;SDS011;34812;49.846;9.610;2023-02-19T03:18:04;3.77;;;3.47;;
16326;SDS011;34812;49.846;9.610;2023-02-19T03:19:26;4.10;;;3.80;;
16326;SDS011;34812;49.846;9.610;2023-02-19T03:20:32;3.97;;;3.67;;
16326;SDS011;34812;49.846;9.610;2023-02-19T03:21:36;3.90;;;3.60;;
16326;SDS011;34812;49.846;9.610;2023-02-19T03:22:41;5.47;;;4.17;;
16326;SDS011;34812;49.846;9.610;2023-02-19T03:23:43;3.73;;;3.43;;
16326;SDS011;34812;49.846;9.610;2023-02-19T03:25:06;4.07;;;3.77;;
16326;SDS011;34812;49.846;9.610;2023-02-19T03:26:46;4.10;;;3.80;;
16326;SDS011;34812;49.846;9.610;2023-02-19T03:27:53;4.20;;;3.80;;
16326;SDS011;34812;49.846;9.610;2023-02-19T03:28:57;4.40;;;4.00;;
16326;SDS011;34812;49.846;9.610;2023-02-19T03:30:19;3.83;;;3.53;;
16326;SDS011;34812;49.846;9.610;2023-02-19T03:31:25;4.43;;;4.03;;
16326;SDS011;34812;49.846;9.610;2023-02-19T03:32:35;4.03;;;3.73;;
16326;SDS011;34812;49.846;9.610;2023-02-19T03:33:40;4.07;;;3.77;;
16326;SDS011;34812;49.846;9.610;2023-02-19T03:34:43;5.20;;;4.17;;
16326;SDS011;34812;49.846;9.610;2023-02-19T03:35:50;4.63;;;4.23;;
16326;SDS011;34812;49.846;9.610;2023-02-19T03:36:55;4.10;;;3.80;;
16326;SDS011;34812;49.846;9.610;2023-02-19T03:38:03;4.40;;;3.97;;
16326;SDS011;34812;49.846;9.610;2023-02-19T03:39:08;4.03;;;3.63;;
16326;SDS011;34812;49.846;9.610;2023-02-19T03:40:12;4.47;;;4.10;;
16326;SDS011;34812;49.846;9.610;2023-02-19T03:41:16;4.50;;;4.20;;
16326;SDS011;34812;49.846;9.610;2023-02-19T03:42:26;4.00;;;3.70;;
16326;SDS011;34812;49.846;9.610;2023-02-19T03:43:36;4.50;;;4.10;;
16326;SDS011;34812;49.846;9.610;2023-02-19T03:44:43;4.30;;;4.00;;
16326;SDS011;34812;49.846;9.610;2023-02-19T03:45:52;4.07;;;3.67;;
16326;SDS011;34812;49.846;9.610;2023-02-19T03:47:00;4.60;;;4.20;;
16326;SDS011;34812;49.846;9.610;2023-02-19T03:48:19;3.90;;;3.60;;
16326;SDS011;34812;49.846;9.610;2023-02-19T03:49:31;4.10;;;3.83;;
16326;SDS011;34812;49.846;9.610;2023-02-19T03:50:43;5.00;;;4.30;;
16326;SDS011;34812;49.846;9.610;2023-02-19T03:51:48;3.70;;;3.50;;
16326;SDS011;34812;49.846;9.610;2023-02-19T03:52:57;3.93;;;3.63;;
16326;SDS011;34812;49.846;9.610;2023-02-19T03:54:07;3.90;;;3.67;;
16326;SDS011;34812;49.846;9.610;2023-02-19T03:55:14;5.33;;;3.90;;
16326;SDS011;34812;49.846;9.610;2023-02-19T03:56:21;3.78;;;3.50;;
16326;SDS011;34812;49.846;9.610;2023-02-19T03:57:30;3.83;;;3.60;;
16326;SDS011;34812;49.846;9.610;2023-02-19T03:58:38;4.17;;;3.47;;
16326;SDS011;34812;49.846;9.610;2023-02-19T03:59:46;3.60;;;3.40;;
16326;SDS011;34812;49.846;9.610;2023-02-19T04:00:51;3.87;;;3.57;;
16326;SDS011;34812;49.846;9.610;2023-02-19T04:01:58;3.70;;;3.40;;
16326;SDS011;34812;49.846;9.610;2023-02-19T04:03:04;4.00;;;3.60;;
16326;SDS011;34812;49.846;9.610;2023-02-19T04:04:14;3.90;;;3.60;;
16326;SDS011;34812;49.846;9.610;2023-02-19T04:05:18;3.57;;;3.27;;
16326;SDS011;34812;49.846;9.610;2023-02-19T04:06:26;3.97;;;3.67;;
16326;SDS011;34812;49.846;9.610;2023-02-19T04:07:29;3.47;;;3.27;;
16326;SDS011;34812;49.846;9.610;2023-02-19T04:08:35;3.70;;;3.50;;
16326;SDS011;34812;49.846;9.610;2023-02-19T04:09:40;3.77;;;3.47;;
16326;SDS011;34812;49.846;9.610;2023-02-19T04:10:48;3.83;;;3.63;;
16326;SDS011;34812;49.846;9.610;2023-02-19T04:11:51;3.53;;;3.33;;
16326;SDS011;34812;49.846;9.610;2023-02-19T04:12:55;3.97;;;3.67;;
16326;SDS011;34812;49.846;9.610;2023-02-19T04:14:02;3.90;;;3.60;;
16326;SDS011;34812;49.846;9.610;2023-02-19T04:15:07;3.77;;;3.50;;
16326;SDS011;34812;49.846;9.610;2023-02-19T04:16:12;3.90;;;3.60;;
16326;SDS011;34812;49.846;9.610;2023-02-19T04:17:19;3.30;;;3.10;;
16326;SDS011;34812;49.846;9.610;2023-02-19T04:18:23;3.50;;;3.30;;
16326;SDS011;34812;49.846;9.610;2023-02-19T04:19:30;3.37;;;3.17;;
16326;SDS011;34812;49.846;9.610;2023-02-19T04:20:35;3.30;;;3.10;;
16326;SDS011;34812;49.846;9.610;2023-02-19T04:21:41;4.00;;;3.70;;
16326;SDS011;34812;49.846;9.610;2023-02-19T04:22:43;3.50;;;3.30;;
16326;SDS011;34812;49.846;9.610;2023-02-19T04:23:45;3.47;;;3.27;;
16326;SDS011;34812;49.846;9.610;2023-02-19T04:24:48;3.60;;;3.30;;
16326;SDS011;34812;49.846;9.610;2023-02-19T04:25:52;3.67;;;3.37;;
16326;SDS011;34812;49.846;9.610;2023-02-19T04:26:57;3.37;;;3.07;;
16326;SDS011;34812;49.846;9.610;2023-02-19T04:27:59;3.27;;;3.03;;
16326;SDS011;34812;49.846;9.610;2023-02-19T04:29:01;3.07;;;2.87;;
16326;SDS011;34812;49.846;9.610;2023-02-19T04:30:05;3.50;;;3.20;;
16326;SDS011;34812;49.846;9.610;2023-02-19T04:31:07;3.43;;;3.13;;
16326;SDS011;34812;49.846;9.610;2023-02-19T04:32:10;3.40;;;3.10;;
16326;SDS011;34812;49.846;9.610;2023-02-19T04:33:12;4.03;;;3.10;;
16326;SDS011;34812;49.846;9.610;2023-02-19T04:34:13;3.40;;;3.10;;
16326;SDS011;34812;49.846;9.610;2023-02-19T04:35:16;3.00;;;2.80;;
16326;SDS011;34812;49.846;9.610;2023-02-19T04:36:17;3.17;;;2.97;;
16326;SDS011;34812;49.846;9.610;2023-02-19T04:37:18;2.67;;;2.50;;
16326;SDS011;34812;49.846;9.610;2023-02-19T04:38:20;2.93;;;2.73;;
16326;SDS011;34812;49.846;9.610;2023-02-19T04:39:21;3.07;;;2.83;;
16326;SDS011;34812;49.846;9.610;2023-02-19T04:40:22;3.37;;;3.07;;
16326;SDS011;34812;49.846;9.610;2023-02-19T04:41:23;2.97;;;2.73;;
16326;SDS011;34812;49.846;9.610;2023-02-19T04:42:25;3.50;;;3.23;;
16326;SDS011;34812;49.846;9.610;2023-02-19T04:43:26;3.03;;;2.73;;
16326;SDS011;34812;49.846;9.610;2023-02-19T04:44:28;3.80;;;3.20;;
16326;SDS011;34812;49.846;9.610;2023-02-19T04:45:28;3.77;;;3.40;;
16326;SDS011;34812;49.846;9.610;2023-02-19T04:46:30;3.50;;;3.20;;
16326;SDS011;34812;49.846;9.610;2023-02-19T04:47:31;3.40;;;3.20;;
16326;SDS011;34812;49.846;9.610;2023-02-19T04:48:33;3.40;;;3.20;;
16326;SDS011;34812;49.846;9.610;2023-02-19T04:49:34;3.73;;;3.40;;
16326;SDS011;34812;49.846;9.610;2023-02-19T04:50:37;3.53;;;3.33;;
16326;SDS011;34812;49.846;9.610;2023-02-19T04:51:38;3.40;;;3.10;;
16326;SDS011;34812;49.846;9.610;2023-02-19T04:52:41;3.83;;;3.47;;
16326;SDS011;34812;49.846;9.610;2023-02-19T04:53:42;3.37;;;3.17;;
16326;SDS011;34812;49.846;9.610;2023-02-19T04:54:43;3.47;;;3.27;;
16326;SDS011;34812;49.846;9.610;2023-02-19T04:55:44;3.40;;;3.20;;
16326;SDS011;34812;49.846;9.610;2023-02-19T04:56:47;3.47;;;3.17;;
16326;SDS011;34812;49.846;9.610;2023-02-19T04:57:49;3.50;;;3.30;;
16326;SDS011;34812;49.846;9.610;2023-02-19T04:58:51;3.67;;;3.37;;
16326;SDS011;34812;49.846;9.610;2023-02-19T04:59:52;4.50;;;4.10;;
16326;SDS011;34812;49.846;9.610;2023-02-19T05:00:54;4.20;;;3.53;;
16326;SDS011;34812;49.846;9.610;2023-02-19T05:01:55;3.17;;;2.97;;
16326;SDS011;34812;49.846;9.610;2023-02-19T05:02:57;4.00;;;3.70;;
16326;SDS011;34812;49.846;9.610;2023-02-19T05:03:58;3.20;;;3.00;;
16326;SDS011;34812;49.846;9.610;2023-02-19T05:05:00;4.27;;;3.80;;
16326;SDS011;34812;49.846;9.610;2023-02-19T05:06:02;3.80;;;3.50;;
16326;SDS011;34812;49.846;9.610;2023-02-19T05:07:05;3.90;;;3.60;;
16326;SDS011;34812;49.846;9.610;2023-02-19T05:08:06;4.20;;;3.90;;
16326;SDS011;34812;49.846;9.610;2023-02-19T05:09:07;3.83;;;3.53;;
16326;SDS011;34812;49.846;9.610;2023-02-19T05:10:08;4.23;;;3.93;;
16326;SDS011;34812;49.846;9.610;2023-02-19T05:11:10;4.60;;;4.20;;
16326;SDS011;34812;49.846;9.610;2023-02-19T05:12:11;3.87;;;3.67;;
16326;SDS011;34812;49.846;9.610;2023-02-19T05:13:13;4.10;;;3.80;;
16326;SDS011;34812;49.846;9.610;2023-02-19T05:14:14;4.30;;;3.53;;
16326;SDS011;34812;49.846;9.610;2023-02-19T05:15:16;3.73;;;3.53;;
16326;SDS011;34812;49.846;9.610;2023-02-19T05:16:17;4.60;;;4.30;;
16326;SDS011;34812;49.846;9.610;2023-02-19T05:17:18;3.90;;;3.70;;
16326;SDS011;34812;49.846;9.610;2023-02-19T05:18:19;4.50;;;4.20;;
16326;SDS011;34812;49.846;9.610;2023-02-19T05:19:21;4.07;;;3.87;;
16326;SDS011;34812;49.846;9.610;2023-02-19T05:20:22;4.63;;;4.33;;
16326;SDS011;34812;49.846;9.610;2023-02-19T05:21:25;4.57;;;4.27;;
16326;SDS011;34812;49.846;9.610;2023-02-19T05:22:27;4.10;;;3.80;;
16326;SDS011;34812;49.846;9.610;2023-02-19T05:23:29;4.33;;;4.03;;
16326;SDS011;34812;49.846;9.610;2023-02-19T05:24:30;4.00;;;3.70;;
16326;SDS011;34812;49.846;9.610;2023-02-19T05:25:31;4.03;;;3.73;;
16326;SDS011;34812;49.846;9.610;2023-02-19T05:26:32;4.03;;;3.83;;
16326;SDS011;34812;49.846;9.610;2023-02-19T05:27:34;3.80;;;3.60;;
16326;SDS011;34812;49.846;9.610;2023-02-19T05:28:35;4.20;;;3.90;;
16326;SDS011;34812;49.846;9.610;2023-02-19T05:29:37;4.83;;;4.40;;
16326;SDS011;34812;49.846;9.610;2023-02-19T05:30:38;5.13;;;4.20;;
16326;SDS011;34812;49.846;9.610;2023-02-19T05:31:39;4.80;;;4.33;;
16326;SDS011;34812;49.846;9.610;2023-02-19T05:32:40;4.53;;;4.10;;
16326;SDS011;34812;49.846;9.610;2023-02-19T05:33:42;3.80;;;3.60;;
16326;SDS011;34812;49.846;9.610;2023-02-19T05:34:44;3.90;;;3.70;;
16326;SDS011;34812;49.846;9.610;2023-02-19T05:35:47;4.47;;;4.07;;
16326;SDS011;34812;49.846;9.610;2023-02-19T05:36:51;3.77;;;3.50;;
16326;SDS011;34812;49.846;9.610;2023-02-19T05:37:52;3.97;;;3.67;;
16326;SDS011;34812;49.846;9.610;2023-02-19T05:38:54;5.00;;;3.43;;
16326;SDS011;34812;49.846;9.610;2023-02-19T05:39:56;3.57;;;3.27;;
16326;SDS011;34812;49.846;9.610;2023-02-19T05:41:05;3.80;;;3.50;;
16326;SDS011;34812;49.846;9.610;2023-02-19T05:42:07;4.33;;;3.90;;
16326;SDS011;34812;49.846;9.610;2023-02-19T05:43:09;3.80;;;3.50;;
16326;SDS011;34812;49.846;9.610;2023-02-19T05:44:10;3.60;;;3.30;;
16326;SDS011;34812;49.846;9.610;2023-02-19T05:45:12;3.30;;;3.10;;
16326;SDS011;34812;49.846;9.610;2023-02-19T05:46:13;3.40;;;3.20;;
16326;SDS011;34812;49.846;9.610;2023-02-19T05:47:16;3.40;;;3.20;;
16326;SDS011;34812;49.846;9.610;2023-02-19T05:48:17;3.60;;;3.40;;
16326;SDS011;34812;49.846;9.610;2023-02-19T05:49:19;3.17;;;2.97;;
16326;SDS011;34812;49.846;9.610;2023-02-19T05:50:19;3.90;;;3.60;;
16326;SDS011;34812;49.846;9.610;2023-02-19T05:51:22;4.07;;;3.70;;
16326;SDS011;34812;49.846;9.610;2023-02-19T05:52:25;3.63;;;3.43;;
16326;SDS011;34812;49.846;9.610;2023-02-19T05:53:27;3.30;;;3.10;;
16326;SDS011;34812;49.846;9.610;2023-02-19T05:54:28;3.27;;;3.07;;
16326;SDS011;34812;49.846;9.610;2023-02-19T05:55:32;3.07;;;2.87;;
16326;SDS011;34812;49.846;9.610;2023-02-19T05:56:34;3.47;;;3.17;;
16326;SDS011;34812;49.846;9.610;2023-02-19T05:57:38;3.23;;;3.03;;
16326;SDS011;34812;49.846;9.610;2023-02-19T05:58:40;3.07;;;2.87;;
16326;SDS011;34812;49.846;9.610;2023-02-19T05:59:42;3.93;;;3.63;;
16326;SDS011;34812;49.846;9.610;2023-02-19T06:00:43;4.97;;;4.57;;
16326;SDS011;34812;49.846;9.610;2023-02-19T06:01:44;4.93;;;4.43;;
16326;SDS011;34812;49.846;9.610;2023-02-19T06:02:46;4.43;;;4.03;;
16326;SDS011;34812;49.846;9.610;2023-02-19T06:03:48;3.90;;;3.60;;
16326;SDS011;34812;49.846;9.610;2023-02-19T06:04:49;3.57;;;3.30;;
16326;SDS011;34812;49.846;9.610;2023-02-19T06:05:50;3.43;;;3.23;;
16326;SDS011;34812;49.846;9.610;2023-02-19T06:06:51;3.17;;;2.97;;
16326;SDS011;34812;49.846;9.610;2023-02-19T06:07:54;3.40;;;3.10;;
16326;SDS011;34812;49.846;9.610;2023-02-19T06:08:55;3.67;;;3.30;;
16326;SDS011;34812;49.846;9.610;2023-02-19T06:09:57;3.30;;;3.00;;
16326;SDS011;34812;49.846;9.610;2023-02-19T06:10:58;2.57;;;2.37;;
16326;SDS011;34812;49.846;9.610;2023-02-19T06:12:00;3.50;;;3.20;;
16326;SDS011;34812;49.846;9.610;2023-02-19T06:13:00;6.33;;;5.00;;
16326;SDS011;34812;49.846;9.610;2023-02-19T06:14:02;7.87;;;5.50;;
16326;SDS011;34812;49.846;9.610;2023-02-19T06:15:03;5.97;;;5.13;;
16326;SDS011;34812;49.846;9.610;2023-02-19T06:16:06;5.73;;;5.10;;
16326;SDS011;34812;49.846;9.610;2023-02-19T06:17:08;3.77;;;3.47;;
16326;SDS011;34812;49.846;9.610;2023-02-19T06:18:10;3.47;;;3.17;;
16326;SDS011;34812;49.846;9.610;2023-02-19T06:19:11;3.47;;;3.17;;
16326;SDS011;34812;49.846;9.610;2023-02-19T06:20:13;2.83;;;2.63;;
16326;SDS011;34812;49.846;9.610;2023-02-19T06:21:14;2.53;;;2.33;;
16326;SDS011;34812;49.846;9.610;2023-02-19T06:22:17;2.97;;;2.77;;
16326;SDS011;34812;49.846;9.610;2023-02-19T06:23:19;2.50;;;2.40;;
16326;SDS011;34812;49.846;9.610;2023-02-19T06:24:20;2.77;;;2.57;;
16326;SDS011;34812;49.846;9.610;2023-02-19T06:25:21;2.70;;;2.50;;
16326;SDS011;34812;49.846;9.610;2023-02-19T06:26:23;2.93;;;2.63;;
16326;SDS011;34812;49.846;9.610;2023-02-19T06:27:24;3.00;;;2.70;;
16326;SDS011;34812;49.846;9.610;2023-02-19T06:28:27;4.37;;;3.67;;
16326;SDS011;34812;49.846;9.610;2023-02-19T06:29:28;3.03;;;2.83;;
16326;SDS011;34812;49.846;9.610;2023-02-19T06:30:31;3.00;;;2.80;;
16326;SDS011;34812;49.846;9.610;2023-02-19T06:31:32;3.00;;;2.80;;